createdAt,value
2018-11-02T00:01:33.878Z,42.50
2018-11-02T00:04:07.496Z,43.43
2018-11-02T00:06:41.185Z,45.03
2018-11-02T00:09:14.757Z,46.60
2018-11-02T00:11:48.327Z,45.53
2018-11-02T00:14:21.885Z,46.33
2018-11-02T00:16:55.894Z,43.83
2018-11-02T00:19:33.997Z,40.47
2018-11-02T00:22:07.603Z,38.63
2018-11-02T00:24:41.365Z,38.13
2018-11-02T00:27:14.954Z,39.57
2018-11-02T00:29:48.589Z,38.10
2018-11-02T00:32:22.314Z,37.23
2018-11-02T00:34:55.902Z,36.03
2018-11-02T00:37:29.488Z,36.00
2018-11-02T00:40:03.137Z,34.87
2018-11-02T00:42:37.927Z,34.60
2018-11-02T00:45:12.365Z,34.10
2018-11-02T00:47:45.962Z,32.63
2018-11-02T00:50:19.943Z,32.80
2018-11-02T00:52:53.518Z,33.30
2018-11-02T00:55:27.161Z,32.67
2018-11-02T00:58:00.754Z,30.93
2018-11-02T01:00:34.360Z,32.03
2018-11-02T01:03:08.282Z,31.17
2018-11-02T01:05:41.931Z,30.87
2018-11-02T01:08:15.583Z,30.53
2018-11-02T01:10:49.411Z,32.03
2018-11-02T01:13:23.197Z,31.30
2018-11-02T01:15:56.859Z,32.13
2018-11-02T01:18:30.450Z,32.10
2018-11-02T01:21:04.349Z,33.17
2018-11-02T01:23:38.114Z,32.57
2018-11-02T01:26:11.737Z,35.77
2018-11-02T01:28:45.334Z,35.47
2018-11-02T01:31:18.936Z,35.87
2018-11-02T01:33:52.544Z,34.23
2018-11-02T01:36:26.192Z,33.63
2018-11-02T01:38:59.754Z,35.00
2018-11-02T01:41:33.347Z,38.17
2018-11-02T01:44:06.975Z,38.80
2018-11-02T01:46:40.781Z,40.30
2018-11-02T01:49:14.534Z,41.00
2018-11-02T01:51:48.156Z,41.90
2018-11-02T01:54:21.714Z,43.17
2018-11-02T01:56:55.542Z,42.97
2018-11-02T01:59:29.117Z,42.40
2018-11-02T02:02:02.685Z,42.37
2018-11-02T02:04:36.344Z,42.20
2018-11-02T02:07:10.126Z,42.87
2018-11-02T02:09:43.728Z,42.07
2018-11-02T02:12:17.405Z,43.73
2018-11-02T02:14:51.255Z,42.77
2018-11-02T02:17:24.905Z,40.90
2018-11-02T02:19:58.458Z,42.93
2018-11-02T02:22:32.070Z,41.10
2018-11-02T02:25:06.575Z,42.10
2018-11-02T02:27:40.355Z,42.63
2018-11-02T02:30:14.771Z,39.33
2018-11-02T02:32:48.363Z,38.60
2018-11-02T02:35:22.173Z,37.70
2018-11-02T02:37:55.788Z,37.63
2018-11-02T02:40:29.390Z,39.50
2018-11-02T02:43:03.137Z,38.00
2018-11-02T02:45:36.710Z,38.47
2018-11-02T02:48:10.295Z,37.37
2018-11-02T02:50:43.867Z,37.20
2018-11-02T02:53:17.698Z,34.93
2018-11-02T02:55:51.482Z,35.50
2018-11-02T02:58:25.094Z,34.13
2018-11-02T03:00:58.636Z,33.23
2018-11-02T03:03:32.599Z,34.93
2018-11-02T03:06:06.155Z,33.73
2018-11-02T03:08:41.139Z,34.03
2018-11-02T03:11:15.009Z,31.97
2018-11-02T03:13:48.566Z,34.03
2018-11-02T03:16:22.201Z,32.60
2018-11-02T03:18:55.823Z,32.57
2018-11-02T03:21:29.365Z,29.10
2018-11-02T03:24:03.018Z,31.87
2018-11-02T03:26:36.684Z,30.03
2018-11-02T03:29:10.616Z,29.47
2018-11-02T03:31:44.183Z,30.90
2018-11-02T03:34:17.785Z,30.97
2018-11-02T03:36:51.500Z,33.57
2018-11-02T03:39:25.323Z,34.77
2018-11-02T03:41:59.126Z,35.03
2018-11-02T03:44:32.945Z,36.57
2018-11-02T03:47:06.614Z,35.73
2018-11-02T03:49:40.247Z,36.80
2018-11-02T03:52:13.898Z,39.27
2018-11-02T03:54:47.669Z,41.20
2018-11-02T03:57:21.389Z,41.67
2018-11-02T03:59:55.025Z,41.13
2018-11-02T04:02:28.763Z,41.97
2018-11-02T04:05:02.370Z,41.73
2018-11-02T04:07:35.939Z,42.13
2018-11-02T04:10:10.432Z,41.97
2018-11-02T04:12:44.375Z,41.00
2018-11-02T04:15:18.156Z,41.67
2018-11-02T04:17:51.702Z,40.73
2018-11-02T04:20:25.360Z,42.33
2018-11-02T04:22:58.959Z,39.77
2018-11-02T04:25:32.702Z,41.20
2018-11-02T04:28:06.433Z,38.50
2018-11-02T04:30:40.320Z,37.73
2018-11-02T04:33:14.011Z,39.70
2018-11-02T04:35:48.342Z,38.27
2018-11-02T04:38:21.993Z,37.60
2018-11-02T04:40:55.808Z,37.10
2018-11-02T04:43:29.672Z,35.30
2018-11-02T04:46:03.302Z,35.97
2018-11-02T04:48:37.081Z,36.83
2018-11-02T04:51:10.753Z,35.93
2018-11-02T04:53:44.421Z,35.27
2018-11-02T04:56:18.200Z,34.87
2018-11-02T04:58:51.871Z,32.77
2018-11-02T05:01:25.451Z,32.80
2018-11-02T05:03:59.066Z,33.40
2018-11-02T05:06:32.725Z,33.73
2018-11-02T05:09:07.977Z,32.40
2018-11-02T05:11:41.788Z,31.90
2018-11-02T05:14:15.913Z,30.73
2018-11-02T05:16:49.535Z,31.00
2018-11-02T05:19:23.120Z,29.93
2018-11-02T05:21:57.610Z,30.67
2018-11-02T05:24:31.769Z,29.77
2018-11-02T05:27:05.451Z,27.63
2018-11-02T05:29:39.019Z,28.23
2018-11-02T05:32:12.630Z,26.97
2018-11-02T05:34:46.213Z,27.40
2018-11-02T05:37:19.984Z,25.80
2018-11-02T05:39:53.596Z,26.00
2018-11-02T05:42:27.208Z,26.60
2018-11-02T05:45:00.983Z,26.57
2018-11-02T05:47:34.827Z,26.53
2018-11-02T05:50:08.793Z,26.63
2018-11-02T05:52:42.434Z,25.20
2018-11-02T05:55:16.235Z,26.87
2018-11-02T05:57:49.891Z,26.63
2018-11-02T06:00:23.519Z,26.00
2018-11-02T06:02:57.118Z,26.20
2018-11-02T06:05:30.864Z,26.53
2018-11-02T06:08:04.549Z,24.30
2018-11-02T06:10:38.324Z,25.60
2018-11-02T06:13:11.932Z,25.40
2018-11-02T06:15:45.485Z,25.37
2018-11-02T06:18:19.296Z,24.43
2018-11-02T06:20:52.890Z,23.90
2018-11-02T06:23:26.485Z,22.10
2018-11-02T06:26:00.082Z,22.97
2018-11-02T06:28:33.798Z,22.23
2018-11-02T06:31:07.836Z,20.30
2018-11-02T06:33:42.727Z,19.80
2018-11-02T06:36:16.514Z,20.67
2018-11-02T06:38:50.375Z,19.77
2018-11-02T06:41:23.945Z,19.83
2018-11-02T06:43:57.731Z,19.23
2018-11-02T06:46:31.435Z,19.17
2018-11-02T06:49:05.777Z,19.77
2018-11-02T06:51:39.328Z,18.47
2018-11-02T06:54:13.029Z,18.47
2018-11-02T06:56:46.634Z,18.83
2018-11-02T06:59:20.561Z,18.20
2018-11-02T07:01:54.278Z,17.20
2018-11-02T07:04:27.878Z,18.53
2018-11-02T07:07:01.800Z,18.03
2018-11-02T07:09:35.487Z,17.93
2018-11-02T07:12:09.097Z,16.00
2018-11-02T07:14:42.722Z,14.77
2018-11-02T07:17:16.310Z,12.57
2018-11-02T07:19:49.960Z,11.73
2018-11-02T07:22:23.533Z,10.93
2018-11-02T07:24:57.361Z,10.00
2018-11-02T07:27:31.443Z,9.83
2018-11-02T07:30:06.016Z,10.63
2018-11-02T07:32:39.712Z,9.50
2018-11-02T07:35:13.350Z,10.43
2018-11-02T07:37:47.019Z,10.17
2018-11-02T07:40:20.628Z,9.55
2018-11-02T07:42:54.333Z,9.77
2018-11-02T07:45:28.520Z,10.25
2018-11-02T07:48:02.646Z,9.05
2018-11-02T07:50:36.866Z,9.68
2018-11-02T07:53:11.052Z,9.70
2018-11-02T07:55:45.399Z,9.70
2018-11-02T07:58:19.514Z,9.28
2018-11-02T08:00:53.710Z,9.28
2018-11-02T08:03:27.778Z,9.23
2018-11-02T08:06:01.568Z,10.07
2018-11-02T08:08:35.338Z,10.20
2018-11-02T08:11:09.019Z,9.80
2018-11-02T08:13:42.599Z,10.70
2018-11-02T08:16:16.182Z,10.67
2018-11-02T08:18:49.738Z,10.63
2018-11-02T08:21:23.531Z,10.83
2018-11-02T08:23:57.137Z,10.60
2018-11-02T08:26:30.736Z,10.60
2018-11-02T08:29:04.359Z,10.27
2018-11-02T08:31:38.002Z,10.40
2018-11-02T08:34:11.583Z,10.07
2018-11-02T08:36:45.174Z,10.57
2018-11-02T08:39:18.764Z,10.47
2018-11-02T08:41:52.389Z,10.40
2018-11-02T08:44:25.971Z,10.47
2018-11-02T08:46:59.530Z,9.93
2018-11-02T08:49:33.152Z,10.20
2018-11-02T08:52:07.233Z,9.33
2018-11-02T08:54:41.004Z,10.67
2018-11-02T08:57:14.604Z,9.50
2018-11-02T08:59:48.250Z,9.90
2018-11-02T09:02:21.948Z,9.60
2018-11-02T09:04:55.558Z,9.20
2018-11-02T09:07:29.358Z,9.13
2018-11-02T09:10:02.946Z,8.47
2018-11-02T09:12:36.535Z,8.53
2018-11-02T09:15:10.244Z,8.47
2018-11-02T09:17:44.163Z,7.90
2018-11-02T09:20:17.746Z,8.73
2018-11-02T09:22:51.521Z,8.60
2018-11-02T09:25:25.134Z,8.43
2018-11-02T09:27:58.749Z,7.93
2018-11-02T09:30:32.301Z,8.57
2018-11-02T09:33:06.109Z,7.93
2018-11-02T09:35:39.708Z,8.47
2018-11-02T09:38:13.346Z,8.03
2018-11-02T09:40:47.013Z,8.23
2018-11-02T09:43:20.810Z,7.87
2018-11-02T09:45:54.421Z,8.37
2018-11-02T09:48:28.013Z,7.20
2018-11-02T09:51:01.729Z,7.73
2018-11-02T09:53:35.523Z,7.97
2018-11-02T09:56:09.157Z,7.73
2018-11-02T09:58:42.789Z,7.40
2018-11-02T10:01:19.735Z,7.65
2018-11-02T10:03:53.617Z,7.60
2018-11-02T10:06:27.399Z,7.03
2018-11-02T10:09:01.068Z,7.13
2018-11-02T10:11:34.812Z,7.95
2018-11-02T10:14:09.727Z,6.90
2018-11-02T10:16:43.860Z,7.58
2018-11-02T10:19:18.041Z,8.25
2018-11-02T10:21:52.225Z,7.65
2018-11-02T10:24:26.448Z,7.50
2018-11-02T10:27:00.754Z,8.15
2018-11-02T10:29:35.585Z,8.15
2018-11-02T10:32:10.024Z,8.00
2018-11-02T10:34:44.352Z,7.58
2018-11-02T10:37:18.757Z,7.67
2018-11-02T10:39:53.025Z,7.40
2018-11-02T10:42:26.934Z,7.10
2018-11-02T10:45:01.444Z,7.55
2018-11-02T10:47:35.786Z,8.15
2018-11-02T10:50:10.155Z,7.90
2018-11-02T10:52:44.342Z,7.67
2018-11-02T10:55:17.964Z,7.80
2018-11-02T10:57:52.254Z,7.62
2018-11-02T11:00:31.568Z,8.23
2018-11-02T11:03:06.404Z,7.95
2018-11-02T11:05:40.153Z,7.77
2018-11-02T11:08:13.906Z,8.30
2018-11-02T11:10:47.636Z,8.03
2018-11-02T11:13:21.841Z,7.40
2018-11-02T11:15:55.603Z,8.20
2018-11-02T11:18:29.205Z,8.00
2018-11-02T11:21:02.903Z,8.10
2018-11-02T11:23:36.623Z,7.60
2018-11-02T11:26:10.244Z,7.30
2018-11-02T11:28:43.844Z,7.43
2018-11-02T11:31:17.885Z,7.50
2018-11-02T11:33:51.516Z,7.50
2018-11-02T11:36:25.777Z,6.70
2018-11-02T11:38:59.506Z,6.73
2018-11-02T11:41:33.405Z,7.00
2018-11-02T11:44:07.810Z,6.72
2018-11-02T11:46:42.149Z,6.10
2018-11-02T11:49:16.377Z,5.83
2018-11-02T11:51:50.210Z,5.62
2018-11-02T11:54:24.409Z,5.55
2018-11-02T11:56:58.721Z,5.72
2018-11-02T11:59:32.844Z,5.37
2018-11-02T12:02:07.105Z,5.15
2018-11-02T12:04:41.379Z,4.70
2018-11-02T12:07:16.011Z,4.85
2018-11-02T12:09:50.162Z,4.33
2018-11-02T12:12:24.359Z,4.05
2018-11-02T12:14:58.523Z,4.40
2018-11-02T12:17:32.782Z,4.60
2018-11-02T12:20:09.689Z,4.42
2018-11-02T12:22:44.381Z,4.25
2018-11-02T12:25:18.556Z,4.80
2018-11-02T12:27:53.142Z,3.90
2018-11-02T12:30:27.306Z,4.17
2018-11-02T12:33:01.701Z,3.80
2018-11-02T12:35:35.851Z,4.20
2018-11-02T12:38:10.170Z,3.67
2018-11-02T12:40:44.312Z,4.37
2018-11-02T12:43:18.731Z,4.10
2018-11-02T12:45:53.065Z,3.80
2018-11-02T12:48:27.306Z,3.70
2018-11-02T12:51:01.549Z,3.67
2018-11-02T12:53:35.757Z,3.42
2018-11-02T12:56:09.934Z,3.55
2018-11-02T12:58:44.162Z,3.60
2018-11-02T13:01:18.501Z,3.27
2018-11-02T13:03:52.864Z,2.90
2018-11-02T13:06:27.008Z,3.02
2018-11-02T13:09:01.341Z,3.22
2018-11-02T13:11:35.643Z,3.10
2018-11-02T13:14:09.848Z,3.08
2018-11-02T13:16:44.160Z,3.05
2018-11-02T13:19:18.314Z,2.85
2018-11-02T13:21:52.634Z,2.40
2018-11-02T13:24:26.807Z,2.33
2018-11-02T13:27:01.135Z,2.33
2018-11-02T13:29:35.285Z,2.20
2018-11-02T13:32:09.395Z,2.27
2018-11-02T13:34:43.583Z,2.20
2018-11-02T13:37:17.849Z,1.77
2018-11-02T13:39:52.106Z,1.92
2018-11-02T13:42:26.368Z,1.40
2018-11-02T13:45:00.526Z,1.47
2018-11-02T13:47:34.937Z,1.45
2018-11-02T13:50:09.442Z,3.10
2018-11-02T13:52:44.331Z,0.93
2018-11-02T13:55:18.491Z,0.95
2018-11-02T13:57:52.597Z,1.00
2018-11-02T14:00:26.786Z,1.15
2018-11-02T14:03:00.976Z,1.20
2018-11-02T14:05:35.307Z,1.25
2018-11-02T14:08:09.413Z,1.47
2018-11-02T14:10:43.763Z,1.30
2018-11-02T14:13:17.897Z,1.12
2018-11-02T14:15:52.074Z,1.40
2018-11-02T14:18:26.216Z,1.50
2018-11-02T14:21:00.585Z,1.30
2018-11-02T14:23:34.703Z,1.40
2018-11-02T14:26:09.410Z,1.27
2018-11-02T14:28:42.978Z,1.27
2018-11-02T14:31:16.650Z,1.37
2018-11-02T14:33:50.237Z,1.20
2018-11-02T14:36:23.827Z,1.10
2018-11-02T14:38:57.398Z,1.30
2018-11-02T14:41:31.358Z,1.20
2018-11-02T14:44:05.331Z,1.40
2018-11-02T14:46:39.710Z,1.00
2018-11-02T14:49:13.371Z,1.23
2018-11-02T14:51:46.968Z,1.13
2018-11-02T14:54:22.259Z,1.10
2018-11-02T14:56:56.070Z,1.40
2018-11-02T14:59:29.768Z,1.17
2018-11-02T15:02:03.592Z,1.33
2018-11-02T15:04:37.249Z,1.00
2018-11-02T15:07:10.840Z,1.03
2018-11-02T15:09:44.622Z,0.90
2018-11-02T15:12:18.249Z,1.00
2018-11-02T15:14:51.802Z,0.90
2018-11-02T15:17:25.427Z,1.20
2018-11-02T15:19:59.169Z,1.23
2018-11-02T15:22:33.006Z,1.47
2018-11-02T15:25:07.030Z,1.60
2018-11-02T15:27:40.624Z,1.77
2018-11-02T15:30:14.732Z,1.30
2018-11-02T15:32:48.517Z,1.40
2018-11-02T15:35:22.144Z,1.60
2018-11-02T15:37:55.759Z,1.40
2018-11-02T15:40:29.366Z,1.80
2018-11-02T15:43:03.001Z,2.13
2018-11-02T15:45:36.768Z,1.93
2018-11-02T15:48:10.382Z,1.83
2018-11-02T15:50:43.933Z,1.77
2018-11-02T15:53:17.636Z,2.30
2018-11-02T15:55:51.369Z,1.87
2018-11-02T15:58:25.149Z,2.10
2018-11-02T16:00:58.731Z,1.83
2018-11-02T16:03:32.334Z,1.73
2018-11-02T16:06:06.152Z,1.87
2018-11-02T16:08:39.746Z,2.37
2018-11-02T16:11:13.514Z,2.60
2018-11-02T16:13:47.156Z,2.60
2018-11-02T16:16:20.751Z,2.40
2018-11-02T16:18:54.386Z,3.50
2018-11-02T16:21:27.957Z,3.50
2018-11-02T16:24:01.755Z,4.53
2018-11-02T16:26:35.410Z,6.67
2018-11-02T16:29:09.008Z,7.60
2018-11-02T16:31:42.569Z,10.27
2018-11-02T16:34:16.244Z,9.53
2018-11-02T16:36:50.148Z,9.27
2018-11-02T16:39:23.770Z,7.37
2018-11-02T16:41:57.325Z,3.83
2018-11-02T16:44:30.968Z,2.80
2018-11-02T16:47:05.048Z,2.80
2018-11-02T16:49:38.694Z,3.70
2018-11-02T16:52:12.497Z,4.30
2018-11-02T16:54:46.176Z,4.10
2018-11-02T16:57:19.888Z,3.10
2018-11-02T16:59:53.672Z,3.20
2018-11-02T17:02:27.465Z,2.87
2018-11-02T17:05:01.316Z,3.30
2018-11-02T17:07:34.996Z,3.13
2018-11-02T17:10:10.023Z,2.70
2018-11-02T17:12:44.126Z,2.80
2018-11-02T17:15:17.792Z,3.23
2018-11-02T17:17:51.552Z,3.10
2018-11-02T17:20:25.166Z,3.03
2018-11-02T17:22:58.944Z,3.10
2018-11-02T17:25:32.605Z,3.10
2018-11-02T17:28:06.268Z,5.67
2018-11-02T17:30:39.904Z,5.13
2018-11-02T17:33:13.525Z,4.37
2018-11-02T17:35:47.288Z,6.50
2018-11-02T17:38:20.873Z,7.67
2018-11-02T17:40:54.446Z,7.87
2018-11-02T17:43:28.143Z,8.73
2018-11-02T17:46:01.757Z,8.93
2018-11-02T17:48:35.383Z,10.60
2018-11-02T17:51:08.983Z,10.50
2018-11-02T17:53:42.795Z,10.30
2018-11-02T17:56:16.629Z,9.10
2018-11-02T17:58:50.285Z,6.73
2018-11-02T18:01:24.082Z,4.97
2018-11-02T18:03:57.754Z,5.00
2018-11-02T18:06:31.815Z,5.13
2018-11-02T18:09:08.950Z,5.67
2018-11-02T18:11:43.105Z,5.20
2018-11-02T18:14:16.941Z,4.20
2018-11-02T18:16:50.646Z,3.80
2018-11-02T18:19:24.290Z,3.80
2018-11-02T18:21:57.987Z,4.67
2018-11-02T18:24:32.209Z,4.20
2018-11-02T18:27:05.990Z,4.17
2018-11-02T18:29:39.779Z,4.37
2018-11-02T18:32:13.330Z,4.17
2018-11-02T18:34:46.945Z,4.20
2018-11-02T18:37:20.839Z,3.57
2018-11-02T18:39:54.530Z,4.80
2018-11-02T18:42:28.438Z,4.80
2018-11-02T18:45:02.174Z,3.63
2018-11-02T18:47:41.111Z,3.57
2018-11-02T18:50:16.805Z,3.17
2018-11-02T18:52:50.826Z,3.20
2018-11-02T18:55:24.413Z,2.87
2018-11-02T18:57:58.089Z,2.90
2018-11-02T19:00:31.888Z,2.70
2018-11-02T19:03:05.694Z,3.33
2018-11-02T19:05:39.301Z,2.70
2018-11-02T19:08:13.082Z,2.87
2018-11-02T19:10:46.687Z,3.13
2018-11-02T19:13:20.457Z,2.60
2018-11-02T19:15:54.192Z,2.60
2018-11-02T19:18:27.938Z,3.03
2018-11-02T19:21:01.524Z,2.90
2018-11-02T19:23:35.371Z,3.60
2018-11-02T19:26:09.050Z,5.50
2018-11-02T19:28:42.685Z,4.30
2018-11-02T19:31:16.260Z,3.40
2018-11-02T19:33:49.859Z,3.17
2018-11-02T19:36:23.745Z,3.40
2018-11-02T19:38:57.341Z,3.23
2018-11-02T19:41:31.244Z,2.80
2018-11-02T19:44:05.509Z,2.30
2018-11-02T19:46:39.125Z,2.30
2018-11-02T19:49:12.918Z,2.70
2018-11-02T19:51:46.737Z,2.70
2018-11-02T19:54:20.542Z,3.37
2018-11-02T19:56:54.093Z,3.07
2018-11-02T19:59:27.684Z,2.83
2018-11-02T20:02:01.267Z,3.07
2018-11-02T20:04:35.041Z,2.80
2018-11-02T20:07:08.768Z,4.33
2018-11-02T20:09:42.492Z,5.13
2018-11-02T20:12:17.073Z,5.10
2018-11-02T20:14:50.673Z,4.50
2018-11-02T20:17:24.292Z,4.77
2018-11-02T20:19:58.077Z,5.30
2018-11-02T20:22:31.922Z,5.27
2018-11-02T20:25:06.291Z,5.13
2018-11-02T20:27:39.890Z,4.20
2018-11-02T20:30:19.594Z,4.23
2018-11-02T20:32:53.191Z,3.87
2018-11-02T20:35:27.275Z,3.80
2018-11-02T20:38:06.900Z,3.87
2018-11-02T20:40:41.212Z,4.10
2018-11-02T20:43:14.970Z,4.07
2018-11-02T20:45:49.398Z,3.80
2018-11-02T20:48:23.249Z,3.93
2018-11-02T20:50:57.596Z,3.90
2018-11-02T20:53:31.402Z,4.50
2018-11-02T20:56:05.677Z,4.53
2018-11-02T20:58:39.545Z,4.43
2018-11-02T21:01:15.562Z,4.20
2018-11-02T21:03:49.470Z,6.10
2018-11-02T21:06:24.341Z,5.00
2018-11-02T21:08:58.242Z,5.10
2018-11-02T21:11:32.610Z,4.33
2018-11-02T21:14:06.632Z,4.87
2018-11-02T21:16:41.872Z,4.27
2018-11-02T21:19:15.662Z,5.00
2018-11-02T21:21:55.146Z,5.00
2018-11-02T21:24:29.180Z,4.43
2018-11-02T21:27:04.422Z,4.93
2018-11-02T21:29:38.291Z,4.30
2018-11-02T21:32:13.139Z,4.53
2018-11-02T21:34:47.183Z,4.20
2018-11-02T21:37:21.409Z,4.27
2018-11-02T21:39:55.243Z,3.97
2018-11-02T21:42:29.593Z,4.13
2018-11-02T21:45:03.457Z,4.70
2018-11-02T21:47:37.853Z,4.27
2018-11-02T21:50:12.260Z,4.20
2018-11-02T21:52:46.555Z,4.43
2018-11-02T21:55:20.418Z,4.90
2018-11-02T21:57:56.883Z,4.00
2018-11-02T22:00:30.682Z,3.90
2018-11-02T22:03:05.402Z,3.53
2018-11-02T22:05:39.300Z,3.60
2018-11-02T22:08:13.754Z,3.37
2018-11-02T22:10:47.544Z,3.80
2018-11-02T22:13:21.486Z,4.03
2018-11-02T22:15:55.495Z,2.97
2018-11-02T22:18:30.686Z,3.50
2018-11-02T22:21:04.812Z,3.83
2018-11-02T22:23:39.929Z,3.30
2018-11-02T22:26:13.770Z,4.07
2018-11-02T22:28:47.709Z,3.60
2018-11-02T22:31:21.708Z,3.67
2018-11-02T22:33:58.414Z,3.67
2018-11-02T22:36:32.237Z,3.73
2018-11-02T22:39:08.948Z,4.07
2018-11-02T22:41:42.951Z,4.37
2018-11-02T22:44:16.916Z,4.67
2018-11-02T22:46:50.699Z,4.60
2018-11-02T22:49:24.672Z,5.93
2018-11-02T22:51:58.638Z,5.80
2018-11-02T22:54:32.868Z,5.97
2018-11-02T22:57:06.864Z,6.63
2018-11-02T22:59:40.691Z,6.57
2018-11-02T23:02:14.459Z,6.10
2018-11-02T23:04:49.310Z,6.27
2018-11-02T23:07:23.107Z,6.33
2018-11-02T23:09:58.981Z,6.60
2018-11-02T23:12:32.759Z,6.23
2018-11-02T23:15:08.341Z,5.83
2018-11-02T23:17:42.139Z,5.80
2018-11-02T23:20:16.983Z,5.60
2018-11-02T23:22:50.970Z,5.80
2018-11-02T23:25:24.855Z,5.77
2018-11-02T23:27:58.674Z,5.83
2018-11-02T23:30:33.582Z,5.63
2018-11-02T23:33:07.456Z,6.07
2018-11-02T23:35:43.947Z,5.90
2018-11-02T23:38:18.007Z,6.33
2018-11-02T23:40:55.857Z,5.90
2018-11-02T23:43:30.333Z,6.97
2018-11-02T23:46:06.260Z,6.03
2018-11-02T23:48:40.433Z,5.50
2018-11-02T23:51:14.941Z,5.70
2018-11-02T23:53:48.942Z,5.63
2018-11-02T23:56:24.841Z,4.87
2018-11-02T23:58:58.694Z,4.87
